createdAt,value
2023-02-06T00:00:29.305Z,1014.79
2023-02-06T00:01:29.291Z,1014.75
2023-02-06T00:03:49.745Z,1014.84
2023-02-06T00:04:49.744Z,1014.82
2023-02-06T00:05:49.774Z,1014.84
2023-02-06T00:06:49.726Z,1014.87
2023-02-06T00:07:49.714Z,1014.86
2023-02-06T00:08:49.706Z,1014.88
2023-02-06T00:09:49.690Z,1014.86
2023-02-06T00:10:49.689Z,1014.91
2023-02-06T00:11:49.670Z,1014.85
2023-02-06T00:12:49.658Z,1014.87
2023-02-06T00:13:49.681Z,1014.86
2023-02-06T00:14:49.636Z,1014.78
2023-02-06T00:15:49.676Z,1014.83
2023-02-06T00:16:49.612Z,1014.76
2023-02-06T00:17:49.601Z,1014.82
2023-02-06T00:18:49.614Z,1014.84
2023-02-06T00:19:49.582Z,1014.89
2023-02-06T00:20:49.568Z,1014.85
2023-02-06T00:21:49.562Z,1014.86
2023-02-06T00:22:49.543Z,1014.81
2023-02-06T00:23:49.552Z,1014.85
2023-02-06T00:24:49.529Z,1014.77
2023-02-06T00:25:49.526Z,1014.93
2023-02-06T00:26:49.498Z,1014.91
2023-02-06T00:27:49.524Z,1014.79
2023-02-06T00:28:49.489Z,1014.85
2023-02-06T00:29:49.468Z,1014.84
2023-02-06T00:30:49.477Z,1014.91
2023-02-06T00:31:49.543Z,1014.88
2023-02-06T00:32:49.516Z,1014.99
2023-02-06T00:33:49.446Z,1014.89
2023-02-06T00:34:49.415Z,1014.91
2023-02-06T00:35:49.406Z,1015.06
2023-02-06T00:36:49.395Z,1015.03
2023-02-06T00:37:49.389Z,1014.97
2023-02-06T00:38:49.383Z,1014.97
2023-02-06T00:39:49.376Z,1014.94
2023-02-06T00:40:49.356Z,1014.93
2023-02-06T00:41:49.347Z,1014.98
2023-02-06T00:42:49.333Z,1014.96
2023-02-06T00:43:49.343Z,1014.96
2023-02-06T00:44:49.320Z,1015.02
2023-02-06T00:45:49.309Z,1015.01
2023-02-06T00:46:49.294Z,1015.00
2023-02-06T00:47:49.292Z,1014.99
2023-02-06T00:48:49.280Z,1014.98
2023-02-06T00:49:49.261Z,1015.05
2023-02-06T00:50:49.248Z,1015.08
2023-02-06T00:51:49.245Z,1015.05
2023-02-06T00:52:49.225Z,1015.05
2023-02-06T00:53:51.114Z,1015.07
2023-02-06T00:54:49.208Z,1015.07
2023-02-06T00:55:49.200Z,1015.11
2023-02-06T00:56:49.187Z,1015.16
2023-02-06T00:57:49.175Z,1015.04
2023-02-06T00:58:49.182Z,1015.03
2023-02-06T00:59:49.162Z,1015.06
2023-02-06T01:00:49.148Z,1015.08
2023-02-06T01:01:49.214Z,1015.13
2023-02-06T01:02:49.204Z,1015.01
2023-02-06T01:03:49.127Z,1015.02
2023-02-06T01:04:49.099Z,1015.10
2023-02-06T01:05:49.093Z,1015.02
2023-02-06T01:06:49.075Z,1015.01
2023-02-06T01:07:49.069Z,1014.94
2023-02-06T01:08:49.064Z,1015.04
2023-02-06T01:09:49.047Z,1015.05
2023-02-06T01:10:49.037Z,1014.96
2023-02-06T01:11:49.022Z,1014.98
2023-02-06T01:12:49.029Z,1014.99
2023-02-06T01:13:49.018Z,1014.96
2023-02-06T01:14:48.989Z,1014.98
2023-02-06T01:15:50.985Z,1014.99
2023-02-06T01:16:48.971Z,1014.97
2023-02-06T01:17:48.959Z,1015.03
2023-02-06T01:18:48.963Z,1015.00
2023-02-06T01:19:48.942Z,1014.99
2023-02-06T01:20:48.926Z,1015.04
2023-02-06T01:21:48.921Z,1014.95
2023-02-06T01:22:48.907Z,1014.99
2023-02-06T01:23:48.907Z,1015.01
2023-02-06T01:24:48.884Z,1014.95
2023-02-06T01:25:48.879Z,1014.95
2023-02-06T01:26:48.863Z,1014.96
2023-02-06T01:27:48.885Z,1014.96
2023-02-06T01:28:48.857Z,1014.91
2023-02-06T01:29:48.844Z,1014.98
2023-02-06T01:30:48.850Z,1015.07
2023-02-06T01:31:48.834Z,1015.07
2023-02-06T01:32:48.807Z,1015.02
2023-02-06T01:33:49.928Z,1014.99
2023-02-06T01:34:49.906Z,1015.04
2023-02-06T01:35:49.902Z,1015.00
2023-02-06T01:36:49.876Z,1014.99
2023-02-06T01:37:49.874Z,1015.07
2023-02-06T01:38:49.885Z,1015.07
2023-02-06T01:39:49.849Z,1015.01
2023-02-06T01:40:49.835Z,1015.04
2023-02-06T01:41:49.833Z,1014.95
2023-02-06T01:42:49.821Z,1015.04
2023-02-06T01:43:49.832Z,1014.99
2023-02-06T01:44:49.817Z,1015.05
2023-02-06T01:45:49.803Z,1015.03
2023-02-06T01:46:49.810Z,1015.08
2023-02-06T01:47:49.775Z,1015.10
2023-02-06T01:48:49.769Z,1015.09
2023-02-06T01:49:49.762Z,1015.04
2023-02-06T01:50:49.763Z,1015.06
2023-02-06T01:51:49.733Z,1015.10
2023-02-06T01:52:49.728Z,1015.12
2023-02-06T01:53:49.713Z,1015.09
2023-02-06T01:54:49.713Z,1015.02
2023-02-06T01:55:49.704Z,1015.05
2023-02-06T01:56:49.681Z,1015.06
2023-02-06T01:57:49.667Z,1015.16
2023-02-06T01:58:49.656Z,1015.12
2023-02-06T01:59:49.653Z,1015.20
2023-02-06T02:00:49.751Z,1015.16
2023-02-06T02:01:49.688Z,1015.23
2023-02-06T02:02:49.621Z,1015.07
2023-02-06T02:03:49.601Z,1015.07
2023-02-06T02:04:49.599Z,1015.14
2023-02-06T02:05:49.580Z,1015.14
2023-02-06T02:06:49.577Z,1015.08
2023-02-06T02:07:49.570Z,1015.05
2023-02-06T02:08:49.547Z,1014.97
2023-02-06T02:09:49.549Z,1014.99
2023-02-06T02:10:49.542Z,1014.92
2023-02-06T02:11:49.521Z,1014.97
2023-02-06T02:12:49.527Z,1014.90
2023-02-06T02:13:49.514Z,1014.86
2023-02-06T02:14:49.518Z,1014.85
2023-02-06T02:15:49.494Z,1014.86
2023-02-06T02:16:49.474Z,1014.92
2023-02-06T02:17:49.466Z,1014.72
2023-02-06T02:18:49.452Z,1014.84
2023-02-06T02:19:49.467Z,1014.84
2023-02-06T02:20:49.446Z,1014.81
2023-02-06T02:21:49.433Z,1014.75
2023-02-06T02:22:49.423Z,1014.77
2023-02-06T02:23:49.424Z,1014.73
2023-02-06T02:24:49.439Z,1014.75
2023-02-06T02:25:49.385Z,1014.74
2023-02-06T02:26:49.376Z,1014.73
2023-02-06T02:27:49.394Z,1014.79
2023-02-06T02:28:49.354Z,1014.70
2023-02-06T02:29:49.354Z,1014.85
2023-02-06T02:30:49.333Z,1014.71
2023-02-06T02:31:49.381Z,1014.67
2023-02-06T02:32:49.313Z,1014.75
2023-02-06T02:33:49.314Z,1014.81
2023-02-06T02:34:49.327Z,1014.74
2023-02-06T02:35:49.279Z,1014.75
2023-02-06T02:36:49.270Z,1014.75
2023-02-06T02:37:49.263Z,1014.78
2023-02-06T02:38:49.254Z,1014.70
2023-02-06T02:39:49.245Z,1014.74
2023-02-06T02:40:49.239Z,1014.69
2023-02-06T02:41:49.222Z,1014.81
2023-02-06T02:42:49.201Z,1014.88
2023-02-06T02:43:49.200Z,1014.83
2023-02-06T02:44:49.193Z,1014.75
2023-02-06T02:45:49.200Z,1014.80
2023-02-06T02:46:49.169Z,1014.63
2023-02-06T02:47:49.161Z,1014.68
2023-02-06T02:48:49.145Z,1014.80
2023-02-06T02:49:49.127Z,1014.64
2023-02-06T02:50:49.121Z,1014.68
2023-02-06T02:51:49.104Z,1014.71
2023-02-06T02:52:49.094Z,1014.65
2023-02-06T02:53:49.083Z,1014.72
2023-02-06T02:54:49.083Z,1014.72
2023-02-06T02:55:49.076Z,1014.58
2023-02-06T02:56:49.047Z,1014.57
2023-02-06T02:57:49.050Z,1014.53
2023-02-06T02:58:49.038Z,1014.52
2023-02-06T02:59:49.040Z,1014.56
2023-02-06T03:00:49.048Z,1014.55
2023-02-06T03:01:49.041Z,1014.56
2023-02-06T03:02:48.994Z,1014.59
2023-02-06T03:03:48.973Z,1014.47
2023-02-06T03:04:48.966Z,1014.55
2023-02-06T03:05:48.969Z,1014.54
2023-02-06T03:06:48.938Z,1014.59
2023-02-06T03:07:48.939Z,1014.50
2023-02-06T03:08:48.920Z,1014.56
2023-02-06T03:09:48.922Z,1014.63
2023-02-06T03:10:48.912Z,1014.58
2023-02-06T03:11:48.889Z,1014.53
2023-02-06T03:12:48.880Z,1014.47
2023-02-06T03:13:48.874Z,1014.50
2023-02-06T03:14:48.851Z,1014.55
2023-02-06T03:15:48.872Z,1014.50
2023-02-06T03:16:48.958Z,1014.63
2023-02-06T03:17:48.825Z,1014.62
2023-02-06T03:18:48.817Z,1014.60
2023-02-06T03:19:48.820Z,1014.58
2023-02-06T03:20:48.824Z,1014.55
2023-02-06T03:21:48.787Z,1014.49
2023-02-06T03:22:48.797Z,1014.53
2023-02-06T03:23:48.768Z,1014.57
2023-02-06T03:24:48.770Z,1014.53
2023-02-06T03:25:48.752Z,1014.46
2023-02-06T03:26:48.733Z,1014.41
2023-02-06T03:27:48.745Z,1014.41
2023-02-06T03:28:48.721Z,1014.40
2023-02-06T03:29:48.727Z,1014.38
2023-02-06T03:30:48.775Z,1014.35
2023-02-06T03:31:48.730Z,1014.36
2023-02-06T03:32:48.683Z,1014.35
2023-02-06T03:33:48.672Z,1014.38
2023-02-06T03:34:48.660Z,1014.39
2023-02-06T03:35:48.656Z,1014.32
2023-02-06T03:36:48.645Z,1014.30
2023-02-06T03:37:48.619Z,1014.38
2023-02-06T03:38:48.619Z,1014.40
2023-02-06T03:39:48.605Z,1014.38
2023-02-06T03:40:49.606Z,1014.39
2023-02-06T03:41:48.594Z,1014.40
2023-02-06T03:42:48.574Z,1014.47
2023-02-06T03:43:48.710Z,1014.46
2023-02-06T03:44:48.563Z,1014.47
2023-02-06T03:45:48.595Z,1014.55
2023-02-06T03:46:48.534Z,1014.50
2023-02-06T03:47:48.524Z,1014.53
2023-02-06T03:48:48.532Z,1014.52
2023-02-06T03:49:48.495Z,1014.53
2023-02-06T03:50:48.509Z,1014.50
2023-02-06T03:51:48.480Z,1014.57
2023-02-06T03:52:48.472Z,1014.52
2023-02-06T03:53:48.468Z,1014.53
2023-02-06T03:54:48.458Z,1014.58
2023-02-06T03:55:48.450Z,1014.53
2023-02-06T03:56:48.427Z,1014.68
2023-02-06T03:57:48.422Z,1014.71
2023-02-06T03:58:48.407Z,1014.62
2023-02-06T03:59:48.395Z,1014.61
2023-02-06T04:00:48.409Z,1014.53
2023-02-06T04:01:48.380Z,1014.61
2023-02-06T04:02:48.390Z,1014.57
2023-02-06T04:03:48.360Z,1014.73
2023-02-06T04:04:48.353Z,1014.70
2023-02-06T04:05:48.378Z,1014.62
2023-02-06T04:06:48.336Z,1014.75
2023-02-06T04:07:48.328Z,1014.55
2023-02-06T04:08:48.317Z,1014.58
2023-02-06T04:09:48.299Z,1014.60
2023-02-06T04:10:48.315Z,1014.72
2023-02-06T04:11:48.274Z,1014.60
2023-02-06T04:12:48.262Z,1014.62
2023-02-06T04:13:48.272Z,1014.65
2023-02-06T04:14:48.247Z,1014.72
2023-02-06T04:15:48.247Z,1014.73
2023-02-06T04:16:48.294Z,1014.68
2023-02-06T04:17:59.237Z,1014.74
2023-02-06T04:18:50.209Z,1014.62
2023-02-06T04:19:48.198Z,1014.70
2023-02-06T04:20:48.193Z,1014.65
2023-02-06T04:21:48.202Z,1014.74
2023-02-06T04:22:48.168Z,1014.73
2023-02-06T04:23:48.157Z,1014.73
2023-02-06T04:24:48.153Z,1014.70
2023-02-06T04:25:48.134Z,1014.77
2023-02-06T04:26:48.137Z,1014.81
2023-02-06T04:27:48.148Z,1014.73
2023-02-06T04:28:48.104Z,1014.76
2023-02-06T04:29:48.099Z,1014.78
2023-02-06T04:30:48.099Z,1014.74
2023-02-06T04:31:48.086Z,1014.82
2023-02-06T04:32:48.066Z,1014.84
2023-02-06T04:33:48.051Z,1014.75
2023-02-06T04:34:48.043Z,1014.74
2023-02-06T04:35:48.026Z,1014.83
2023-02-06T04:36:48.030Z,1014.78
2023-02-06T04:37:48.008Z,1014.80
2023-02-06T04:38:48.002Z,1014.67
2023-02-06T04:39:48.001Z,1014.69
2023-02-06T04:40:47.979Z,1014.61
2023-02-06T04:41:47.977Z,1014.75
2023-02-06T04:42:47.957Z,1014.70
2023-02-06T04:43:47.967Z,1014.81
2023-02-06T04:44:47.948Z,1014.75
2023-02-06T04:45:47.944Z,1014.79
2023-02-06T04:46:47.938Z,1014.80
2023-02-06T04:47:47.934Z,1014.79
2023-02-06T04:48:47.907Z,1014.77
2023-02-06T04:49:47.902Z,1014.75
2023-02-06T04:50:47.877Z,1014.75
2023-02-06T04:51:47.889Z,1014.74
2023-02-06T04:52:47.870Z,1014.67
2023-02-06T04:53:47.849Z,1014.68
2023-02-06T04:54:47.840Z,1014.63
2023-02-06T04:55:47.824Z,1014.73
2023-02-06T04:56:47.840Z,1014.73
2023-02-06T04:57:47.816Z,1014.74
2023-02-06T04:58:47.797Z,1014.76
2023-02-06T04:59:48.788Z,1014.79
2023-02-06T05:00:47.770Z,1014.88
2023-02-06T05:01:47.827Z,1014.95
2023-02-06T05:02:47.807Z,1014.91
2023-02-06T05:03:47.738Z,1014.80
2023-02-06T05:04:47.732Z,1014.79
2023-02-06T05:05:47.723Z,1014.72
2023-02-06T05:06:47.728Z,1014.72
2023-02-06T05:07:47.711Z,1014.75
2023-02-06T05:08:47.705Z,1014.60
2023-02-06T05:09:47.697Z,1014.74
2023-02-06T05:10:47.674Z,1014.74
2023-02-06T05:11:47.678Z,1014.72
2023-02-06T05:12:47.658Z,1014.69
2023-02-06T05:13:47.632Z,1014.60
2023-02-06T05:14:47.646Z,1014.64
2023-02-06T05:15:47.643Z,1014.64
2023-02-06T05:16:47.597Z,1014.58
2023-02-06T05:17:48.616Z,1014.58
2023-02-06T05:18:47.581Z,1014.61
2023-02-06T05:19:47.580Z,1014.60
2023-02-06T05:20:47.565Z,1014.59
2023-02-06T05:21:47.565Z,1014.62
2023-02-06T05:22:47.562Z,1014.64
2023-02-06T05:23:47.540Z,1014.62
2023-02-06T05:24:47.547Z,1014.63
2023-02-06T05:25:47.502Z,1014.57
2023-02-06T05:26:48.512Z,1014.58
2023-02-06T05:27:47.549Z,1014.63
2023-02-06T05:28:47.486Z,1014.53
2023-02-06T05:29:47.472Z,1014.55
2023-02-06T05:30:47.607Z,1014.53
2023-02-06T05:31:47.511Z,1014.56
2023-02-06T05:32:47.458Z,1014.54
2023-02-06T05:33:47.436Z,1014.53
2023-02-06T05:34:47.429Z,1014.53
2023-02-06T05:35:47.424Z,1014.52
2023-02-06T05:36:47.418Z,1014.55
2023-02-06T05:37:47.402Z,1014.55
2023-02-06T05:38:47.399Z,1014.62
2023-02-06T05:39:47.378Z,1014.62
2023-02-06T05:40:47.380Z,1014.64
2023-02-06T05:41:47.349Z,1014.70
2023-02-06T05:42:48.363Z,1014.59
2023-02-06T05:43:47.341Z,1014.58
2023-02-06T05:44:47.338Z,1014.56
2023-02-06T05:45:47.318Z,1014.66
2023-02-06T05:46:47.302Z,1014.61
2023-02-06T05:47:47.302Z,1014.59
2023-02-06T05:48:47.287Z,1014.59
2023-02-06T05:49:47.271Z,1014.73
2023-02-06T05:50:47.263Z,1014.68
2023-02-06T05:51:47.257Z,1014.69
2023-02-06T05:52:47.256Z,1014.82
2023-02-06T05:53:47.234Z,1014.74
2023-02-06T05:54:48.223Z,1014.68
2023-02-06T05:55:47.224Z,1014.71
2023-02-06T05:56:47.206Z,1014.75
2023-02-06T05:57:47.236Z,1014.73
2023-02-06T05:58:47.191Z,1014.77
2023-02-06T05:59:47.189Z,1014.79
2023-02-06T06:00:47.156Z,1014.77
2023-02-06T06:01:47.161Z,1014.78
2023-02-06T06:02:47.187Z,1014.86
2023-02-06T06:03:47.226Z,1014.77
2023-02-06T06:04:47.218Z,1014.72
2023-02-06T06:05:47.136Z,1014.70
2023-02-06T06:06:47.113Z,1014.75
2023-02-06T06:07:47.117Z,1014.67
2023-02-06T06:08:47.115Z,1014.70
2023-02-06T06:09:47.091Z,1014.73
2023-02-06T06:10:47.071Z,1014.77
2023-02-06T06:11:47.069Z,1014.83
2023-02-06T06:12:47.059Z,1014.85
2023-02-06T06:13:47.048Z,1014.93
2023-02-06T06:14:47.116Z,1014.95
2023-02-06T06:15:47.073Z,1014.82
2023-02-06T06:16:47.030Z,1014.88
2023-02-06T06:17:47.047Z,1014.84
2023-02-06T06:18:47.075Z,1014.84
2023-02-06T06:19:47.037Z,1014.78
2023-02-06T06:20:47.638Z,1014.78
2023-02-06T06:21:47.003Z,1014.80
2023-02-06T06:22:47.044Z,1014.74
2023-02-06T06:23:46.996Z,1014.72
2023-02-06T06:24:46.965Z,1014.72
2023-02-06T06:25:46.957Z,1014.78
2023-02-06T06:26:47.915Z,1014.78
2023-02-06T06:27:46.976Z,1014.85
2023-02-06T06:28:46.939Z,1014.83
2023-02-06T06:29:46.908Z,1014.87
2023-02-06T06:30:46.935Z,1014.82
2023-02-06T06:31:46.900Z,1014.84
2023-02-06T06:32:46.872Z,1014.85
2023-02-06T06:33:47.884Z,1014.81
2023-02-06T06:34:46.873Z,1014.89
2023-02-06T06:35:46.904Z,1014.91
2023-02-06T06:36:46.846Z,1014.93
2023-02-06T06:37:46.839Z,1014.90
2023-02-06T06:38:46.878Z,1015.02
2023-02-06T06:39:46.843Z,1015.01
2023-02-06T06:40:46.802Z,1014.95
2023-02-06T06:41:46.816Z,1014.92
2023-02-06T06:42:46.807Z,1014.90
2023-02-06T06:43:46.757Z,1014.94
2023-02-06T06:44:46.763Z,1015.02
2023-02-06T06:45:46.794Z,1015.00
2023-02-06T06:46:46.855Z,1015.02
2023-02-06T06:47:46.740Z,1014.93
2023-02-06T06:48:46.757Z,1015.01
2023-02-06T06:49:46.786Z,1015.11
2023-02-06T06:50:46.717Z,1015.07
2023-02-06T06:51:46.718Z,1015.09
2023-02-06T06:52:46.722Z,1014.98
2023-02-06T06:53:46.741Z,1015.02
2023-02-06T06:54:47.687Z,1015.13
2023-02-06T06:55:46.667Z,1015.06
2023-02-06T06:56:46.635Z,1015.06
2023-02-06T06:57:46.672Z,1015.15
2023-02-06T06:58:46.655Z,1015.04
2023-02-06T06:59:46.650Z,1015.14
2023-02-06T07:00:46.665Z,1015.14
2023-02-06T07:01:46.610Z,1015.14
2023-02-06T07:02:46.623Z,1015.11
2023-02-06T07:03:46.600Z,1015.02
2023-02-06T07:04:46.540Z,1015.05
2023-02-06T07:05:46.561Z,1015.13
2023-02-06T07:06:47.571Z,1015.12
2023-02-06T07:07:46.560Z,1015.23
2023-02-06T07:08:46.561Z,1015.18
2023-02-06T07:09:46.529Z,1015.16
2023-02-06T07:10:46.532Z,1015.19
2023-02-06T07:11:46.529Z,1015.17
2023-02-06T07:12:46.509Z,1015.17
2023-02-06T07:13:46.504Z,1015.11
2023-02-06T07:14:46.495Z,1015.19
2023-02-06T07:15:46.476Z,1015.05
2023-02-06T07:16:46.490Z,1015.11
2023-02-06T07:17:46.429Z,1015.12
2023-02-06T07:18:46.471Z,1014.96
2023-02-06T07:19:46.419Z,1015.05
2023-02-06T07:20:46.434Z,1015.05
2023-02-06T07:21:46.416Z,1015.14
2023-02-06T07:22:46.421Z,1014.99
2023-02-06T07:23:46.420Z,1014.97
2023-02-06T07:24:46.414Z,1015.00
2023-02-06T07:25:46.405Z,1014.97
2023-02-06T07:26:46.412Z,1015.01
2023-02-06T07:27:46.368Z,1014.98
2023-02-06T07:28:46.365Z,1015.08
2023-02-06T07:29:46.368Z,1015.07
2023-02-06T07:30:46.422Z,1015.05
2023-02-06T07:31:46.456Z,1015.08
2023-02-06T07:32:46.330Z,1015.18
2023-02-06T07:33:46.303Z,1015.16
2023-02-06T07:34:46.313Z,1015.16
2023-02-06T07:35:46.271Z,1015.08
2023-02-06T07:36:46.286Z,1015.13
2023-02-06T07:37:46.298Z,1015.13
2023-02-06T07:38:46.267Z,1015.28
2023-02-06T07:39:46.240Z,1015.16
2023-02-06T07:40:46.294Z,1015.11
2023-02-06T07:41:46.234Z,1015.10
2023-02-06T07:42:46.208Z,1015.16
2023-02-06T07:43:46.220Z,1015.04
2023-02-06T07:44:46.175Z,1015.00
2023-02-06T07:45:46.216Z,1015.10
2023-02-06T07:46:46.161Z,1015.01
2023-02-06T07:47:46.158Z,1015.03
2023-02-06T07:48:46.174Z,1015.15
2023-02-06T07:49:46.160Z,1015.13
2023-02-06T07:50:46.172Z,1015.08
2023-02-06T07:51:46.111Z,1015.11
2023-02-06T07:52:46.102Z,1015.07
2023-02-06T07:53:46.088Z,1014.96
2023-02-06T07:54:47.093Z,1014.99
2023-02-06T07:55:46.092Z,1015.07
2023-02-06T07:56:46.104Z,1015.09
2023-02-06T07:57:46.074Z,1015.11
2023-02-06T07:58:46.111Z,1015.11
2023-02-06T07:59:46.064Z,1015.03
2023-02-06T08:00:46.053Z,1015.01
2023-02-06T08:01:46.097Z,1014.96
2023-02-06T08:02:46.021Z,1014.98
2023-02-06T08:03:46.025Z,1014.92
2023-02-06T08:04:46.041Z,1014.96
2023-02-06T08:05:45.984Z,1015.02
2023-02-06T08:06:46.012Z,1015.01
2023-02-06T08:07:45.956Z,1014.91
2023-02-06T08:08:45.967Z,1014.87
2023-02-06T08:09:45.933Z,1014.91
2023-02-06T08:10:45.930Z,1014.88
2023-02-06T08:11:45.901Z,1014.77
2023-02-06T08:12:45.908Z,1014.88
2023-02-06T08:13:45.864Z,1014.88
2023-02-06T08:14:45.970Z,1014.83
2023-02-06T08:15:45.868Z,1014.97
2023-02-06T08:16:45.901Z,1014.92
2023-02-06T08:17:45.876Z,1014.96
2023-02-06T08:18:45.819Z,1014.93
2023-02-06T08:19:45.839Z,1014.92
2023-02-06T08:20:45.837Z,1014.91
2023-02-06T08:21:45.841Z,1014.93
2023-02-06T08:22:45.820Z,1014.88
2023-02-06T08:23:45.884Z,1014.93
2023-02-06T08:24:45.821Z,1014.99
2023-02-06T08:25:45.753Z,1014.90
2023-02-06T08:26:45.739Z,1014.92
2023-02-06T08:27:45.803Z,1014.96
2023-02-06T08:28:45.771Z,1014.92
2023-02-06T08:29:45.746Z,1014.95
2023-02-06T08:30:45.801Z,1014.94
2023-02-06T08:31:45.814Z,1014.98
2023-02-06T08:32:45.711Z,1014.93
2023-02-06T08:33:45.689Z,1014.88
2023-02-06T08:34:45.708Z,1014.87
2023-02-06T08:35:45.692Z,1014.94
2023-02-06T08:36:45.656Z,1014.93
2023-02-06T08:37:45.673Z,1014.97
2023-02-06T08:38:46.739Z,1014.95
2023-02-06T08:39:46.634Z,1014.93
2023-02-06T08:40:45.625Z,1014.93
2023-02-06T08:41:45.621Z,1015.02
2023-02-06T08:42:45.653Z,1014.87
2023-02-06T08:43:45.604Z,1014.92
2023-02-06T08:44:45.571Z,1014.91
2023-02-06T08:45:45.642Z,1014.87
2023-02-06T08:46:45.598Z,1014.84
2023-02-06T08:47:45.582Z,1014.88
2023-02-06T08:48:45.596Z,1014.81
2023-02-06T08:49:45.557Z,1014.83
2023-02-06T08:50:48.508Z,1014.85
2023-02-06T08:51:45.559Z,1014.91
2023-02-06T08:52:45.529Z,1014.85
2023-02-06T08:53:45.488Z,1014.95
2023-02-06T08:54:45.516Z,1014.89
2023-02-06T08:55:45.494Z,1014.87
2023-02-06T08:56:45.537Z,1014.92
2023-02-06T08:57:45.476Z,1014.76
2023-02-06T08:58:45.459Z,1014.74
2023-02-06T08:59:45.598Z,1014.72
2023-02-06T09:00:45.423Z,1014.80
2023-02-06T09:01:45.621Z,1014.78
2023-02-06T09:05:09.341Z,1014.76
2023-02-06T09:06:10.462Z,1014.71
2023-02-06T09:07:09.295Z,1014.70
2023-02-06T10:53:03.648Z,1013.80
2023-02-06T10:53:38.511Z,1013.80
2023-02-06T10:54:38.498Z,1013.80
2023-02-06T10:55:38.493Z,1013.72
2023-02-06T10:56:38.524Z,1013.77
2023-02-06T10:57:38.471Z,1013.65
2023-02-06T10:58:38.462Z,1013.59
2023-02-06T10:59:38.423Z,1013.60
2023-02-06T11:00:38.867Z,1013.57
2023-02-06T11:01:38.602Z,1013.61
2023-02-06T11:02:38.398Z,1013.63
2023-02-06T11:03:39.840Z,1013.56
2023-02-06T11:04:38.415Z,1013.64
2023-02-06T11:05:38.870Z,1013.57
2023-02-06T11:06:38.381Z,1013.68
2023-02-06T11:07:38.356Z,1013.70
2023-02-06T11:08:38.341Z,1013.63
2023-02-06T11:09:38.342Z,1013.70
2023-02-06T11:10:38.789Z,1013.67
2023-02-06T11:11:38.309Z,1013.61
2023-02-06T11:12:38.400Z,1013.60
2023-02-06T11:13:38.309Z,1013.57
2023-02-06T11:15:40.138Z,1013.61
2023-02-06T11:16:38.295Z,1013.73
2023-02-06T11:17:38.227Z,1013.65
2023-02-06T11:18:38.206Z,1013.68
2023-02-06T11:19:38.198Z,1013.73
2023-02-06T11:20:38.488Z,1013.79
2023-02-06T11:21:38.170Z,1013.76
2023-02-06T11:22:51.042Z,1013.65
2023-02-06T11:23:39.153Z,1013.67
2023-02-06T11:24:38.150Z,1013.66
2023-02-06T11:25:38.498Z,1013.70
2023-02-06T11:26:38.141Z,1013.60
2023-02-06T11:27:38.122Z,1013.63
2023-02-06T11:28:38.104Z,1013.54
2023-02-06T11:29:38.096Z,1013.54
2023-02-06T11:30:38.465Z,1013.56
2023-02-06T11:31:38.286Z,1013.46
2023-02-06T11:32:38.073Z,1013.51
2023-02-06T11:33:38.056Z,1013.61
2023-02-06T11:34:38.039Z,1013.53
2023-02-06T11:35:38.431Z,1013.54
2023-02-06T11:36:38.011Z,1013.48
2023-02-06T11:37:38.030Z,1013.46
2023-02-06T11:38:37.990Z,1013.38
2023-02-06T11:39:37.995Z,1013.40
2023-02-06T11:40:38.468Z,1013.41
2023-02-06T11:41:37.971Z,1013.42
2023-02-06T11:42:37.983Z,1013.36
2023-02-06T11:43:37.973Z,1013.47
2023-02-06T11:44:37.934Z,1013.38
2023-02-06T11:45:38.235Z,1013.36
2023-02-06T11:46:37.915Z,1013.38
2023-02-06T11:47:38.288Z,1013.30
2023-02-06T11:48:37.900Z,1013.33
2023-02-06T11:49:37.898Z,1013.32
2023-02-06T11:50:38.192Z,1013.41
2023-02-06T11:51:37.862Z,1013.31
2023-02-06T11:52:37.863Z,1013.34
2023-02-06T11:53:37.899Z,1013.38
2023-02-06T11:54:37.829Z,1013.29
2023-02-06T11:55:38.111Z,1013.31
2023-02-06T11:56:37.806Z,1013.37
2023-02-06T11:57:37.815Z,1013.35
2023-02-06T11:58:37.791Z,1013.34
2023-02-06T11:59:37.781Z,1013.37
2023-02-06T12:00:37.767Z,1013.37
2023-02-06T12:01:37.779Z,1013.43
2023-02-06T12:02:37.788Z,1013.32
2023-02-06T12:03:37.832Z,1013.32
2023-02-06T12:04:37.736Z,1013.27
2023-02-06T12:05:38.175Z,1013.25
2023-02-06T12:06:37.710Z,1013.34
2023-02-06T12:07:37.736Z,1013.26
2023-02-06T12:08:37.690Z,1013.16
2023-02-06T12:09:37.679Z,1013.20
2023-02-06T12:10:37.672Z,1013.24
2023-02-06T12:11:37.669Z,1013.20
2023-02-06T12:12:37.671Z,1013.18
2023-02-06T12:13:37.646Z,1013.23
2023-02-06T12:14:37.627Z,1013.16
2023-02-06T12:15:46.644Z,1013.12
2023-02-06T12:16:38.649Z,1013.09
2023-02-06T12:17:37.603Z,1013.12
2023-02-06T12:18:37.613Z,1013.16
2023-02-06T12:19:37.579Z,1013.14
2023-02-06T12:20:37.577Z,1013.25
2023-02-06T12:21:37.556Z,1013.18
2023-02-06T12:22:37.545Z,1013.12
2023-02-06T12:23:37.555Z,1013.18
2023-02-06T12:24:37.560Z,1013.18
2023-02-06T12:25:37.859Z,1013.09
2023-02-06T12:26:37.505Z,1013.18
2023-02-06T12:27:39.276Z,1013.08
2023-02-06T12:28:37.501Z,1013.13
2023-02-06T12:29:37.501Z,1013.18
2023-02-06T12:30:37.561Z,1013.12
2023-02-06T12:31:37.598Z,1013.15
2023-02-06T12:32:37.437Z,1013.22
2023-02-06T12:33:37.462Z,1013.16
2023-02-06T12:34:37.429Z,1013.16
2023-02-06T12:35:37.714Z,1013.11
2023-02-06T12:36:37.397Z,1013.08
2023-02-06T12:37:37.386Z,1013.22
2023-02-06T12:38:37.388Z,1013.34
2023-02-06T12:39:37.365Z,1013.32
2023-02-06T12:40:37.348Z,1013.29
2023-02-06T12:41:37.343Z,1013.23
2023-02-06T12:42:37.340Z,1013.19
2023-02-06T12:43:37.334Z,1013.16
2023-02-06T12:44:37.309Z,1013.17
2023-02-06T12:45:37.617Z,1013.26
2023-02-06T12:46:37.295Z,1013.26
2023-02-06T12:47:37.294Z,1013.34
2023-02-06T12:48:37.294Z,1013.23
2023-02-06T12:49:37.256Z,1013.26
2023-02-06T12:50:37.242Z,1013.14
2023-02-06T12:51:37.231Z,1013.16
2023-02-06T12:52:37.231Z,1013.23
2023-02-06T12:53:37.249Z,1013.24
2023-02-06T12:54:37.197Z,1013.29
2023-02-06T12:55:37.556Z,1013.23
2023-02-06T12:56:37.172Z,1013.18
2023-02-06T12:57:37.168Z,1013.25
2023-02-06T12:58:37.232Z,1013.13
2023-02-06T12:59:41.623Z,1013.23
2023-02-06T13:00:38.169Z,1013.24
2023-02-06T13:01:37.218Z,1013.27
2023-02-06T13:02:37.153Z,1013.24
2023-02-06T13:03:37.132Z,1013.30
2023-02-06T13:04:37.093Z,1013.19
2023-02-06T13:05:37.472Z,1013.28
2023-02-06T13:06:37.088Z,1013.19
2023-02-06T13:07:48.818Z,1013.08
2023-02-06T13:08:38.079Z,1013.15
2023-02-06T13:09:37.051Z,1013.12
2023-02-06T13:10:37.357Z,1013.22
2023-02-06T13:11:37.032Z,1013.20
2023-02-06T13:12:37.042Z,1013.28
2023-02-06T13:13:37.063Z,1013.21
2023-02-06T13:14:38.747Z,1013.20
2023-02-06T13:15:37.368Z,1013.14
2023-02-06T13:16:36.991Z,1013.10
2023-02-06T13:17:36.981Z,1013.20
2023-02-06T13:18:37.008Z,1013.20
2023-02-06T13:19:36.960Z,1013.22
2023-02-06T13:20:36.943Z,1013.20
2023-02-06T13:21:36.939Z,1013.17
2023-02-06T13:22:36.916Z,1013.11
2023-02-06T13:23:36.923Z,1013.17
2023-02-06T13:24:36.911Z,1013.19
2023-02-06T13:25:37.243Z,1013.24
2023-02-06T13:26:36.878Z,1013.22
2023-02-06T13:27:36.862Z,1013.21
2023-02-06T13:28:36.869Z,1013.22
2023-02-06T13:29:36.847Z,1013.24
2023-02-06T13:30:36.892Z,1013.24
2023-02-06T13:31:36.858Z,1013.20
2023-02-06T13:32:38.070Z,1013.16
2023-02-06T13:33:37.091Z,1013.17
2023-02-06T13:34:36.820Z,1013.14
2023-02-06T13:35:37.085Z,1013.11
2023-02-06T13:36:36.770Z,1013.12
2023-02-06T13:37:36.764Z,1013.16
2023-02-06T13:38:36.770Z,1013.06
2023-02-06T13:39:36.742Z,1013.14
2023-02-06T13:40:36.739Z,1013.13
2023-02-06T13:41:36.734Z,1013.14
2023-02-06T13:42:36.719Z,1013.11
2023-02-06T13:43:36.734Z,1013.11
2023-02-06T13:44:36.696Z,1013.12
2023-02-06T13:45:37.003Z,1013.07
2023-02-06T13:46:36.694Z,1013.12
2023-02-06T13:47:36.656Z,1013.06
2023-02-06T13:48:36.687Z,1013.11
2023-02-06T13:49:36.638Z,1013.02
2023-02-06T13:50:36.635Z,1013.07
2023-02-06T13:51:36.617Z,1013.14
2023-02-06T13:52:36.620Z,1013.14
2023-02-06T13:53:36.616Z,1013.14
2023-02-06T13:54:36.605Z,1013.04